sensor_id;sensor_type;location;lat;lon;timestamp;P1;durP1;ratioP1;P2;durP2;ratioP2
15063;SDS011;7631;52.088;5.088;2024-01-30T00:02:23;7.07;;;6.37;;
15063;SDS011;7631;52.088;5.088;2024-01-30T00:04:48;6.60;;;5.90;;
15063;SDS011;7631;52.088;5.088;2024-01-30T00:07:13;6.63;;;5.97;;
15063;SDS011;7631;52.088;5.088;2024-01-30T00:09:39;7.13;;;6.00;;
15063;SDS011;7631;52.088;5.088;2024-01-30T00:12:05;6.40;;;5.70;;
15063;SDS011;7631;52.088;5.088;2024-01-30T00:14:31;6.57;;;5.80;;
15063;SDS011;7631;52.088;5.088;2024-01-30T00:16:56;6.90;;;6.20;;
15063;SDS011;7631;52.088;5.088;2024-01-30T00:19:21;7.23;;;6.40;;
15063;SDS011;7631;52.088;5.088;2024-01-30T00:21:47;7.47;;;6.70;;
15063;SDS011;7631;52.088;5.088;2024-01-30T00:24:12;7.30;;;6.30;;
15063;SDS011;7631;52.088;5.088;2024-01-30T00:26:37;6.87;;;6.03;;
15063;SDS011;7631;52.088;5.088;2024-01-30T00:29:03;7.17;;;6.47;;
15063;SDS011;7631;52.088;5.088;2024-01-30T00:31:28;7.50;;;6.50;;
15063;SDS011;7631;52.088;5.088;2024-01-30T00:33:53;7.40;;;6.63;;
15063;SDS011;7631;52.088;5.088;2024-01-30T00:36:18;7.80;;;5.77;;
15063;SDS011;7631;52.088;5.088;2024-01-30T00:38:44;7.33;;;6.50;;
15063;SDS011;7631;52.088;5.088;2024-01-30T00:41:09;7.50;;;6.40;;
15063;SDS011;7631;52.088;5.088;2024-01-30T00:43:34;8.33;;;6.80;;
15063;SDS011;7631;52.088;5.088;2024-01-30T00:46:00;7.23;;;5.73;;
15063;SDS011;7631;52.088;5.088;2024-01-30T00:48:25;7.33;;;6.50;;
15063;SDS011;7631;52.088;5.088;2024-01-30T00:50:50;7.50;;;6.67;;
15063;SDS011;7631;52.088;5.088;2024-01-30T00:53:15;6.57;;;5.90;;
15063;SDS011;7631;52.088;5.088;2024-01-30T00:55:41;6.90;;;6.20;;
15063;SDS011;7631;52.088;5.088;2024-01-30T00:58:06;6.87;;;6.03;;
15063;SDS011;7631;52.088;5.088;2024-01-30T01:00:32;6.73;;;6.00;;
15063;SDS011;7631;52.088;5.088;2024-01-30T01:03:00;6.47;;;5.73;;
15063;SDS011;7631;52.088;5.088;2024-01-30T01:05:25;6.60;;;5.97;;
15063;SDS011;7631;52.088;5.088;2024-01-30T01:07:50;7.37;;;6.20;;
15063;SDS011;7631;52.088;5.088;2024-01-30T01:10:16;8.67;;;6.70;;
15063;SDS011;7631;52.088;5.088;2024-01-30T01:12:42;6.63;;;5.97;;
15063;SDS011;7631;52.088;5.088;2024-01-30T01:15:07;7.37;;;6.33;;
15063;SDS011;7631;52.088;5.088;2024-01-30T01:17:34;6.77;;;6.07;;
15063;SDS011;7631;52.088;5.088;2024-01-30T01:20:00;7.13;;;6.20;;
15063;SDS011;7631;52.088;5.088;2024-01-30T01:22:25;7.00;;;6.20;;
15063;SDS011;7631;52.088;5.088;2024-01-30T01:24:50;7.00;;;6.30;;
15063;SDS011;7631;52.088;5.088;2024-01-30T01:27:15;6.70;;;6.00;;
15063;SDS011;7631;52.088;5.088;2024-01-30T01:29:41;6.83;;;6.07;;
15063;SDS011;7631;52.088;5.088;2024-01-30T01:32:06;6.57;;;5.87;;
15063;SDS011;7631;52.088;5.088;2024-01-30T01:34:31;7.47;;;6.40;;
15063;SDS011;7631;52.088;5.088;2024-01-30T01:36:56;6.60;;;5.90;;
15063;SDS011;7631;52.088;5.088;2024-01-30T01:39:22;6.60;;;5.90;;
15063;SDS011;7631;52.088;5.088;2024-01-30T01:41:48;7.20;;;6.50;;
15063;SDS011;7631;52.088;5.088;2024-01-30T01:44:13;6.83;;;6.10;;
15063;SDS011;7631;52.088;5.088;2024-01-30T01:46:39;7.20;;;6.23;;
15063;SDS011;7631;52.088;5.088;2024-01-30T01:49:05;6.67;;;5.93;;
15063;SDS011;7631;52.088;5.088;2024-01-30T01:51:30;7.37;;;6.30;;
15063;SDS011;7631;52.088;5.088;2024-01-30T01:53:56;6.60;;;5.70;;
15063;SDS011;7631;52.088;5.088;2024-01-30T01:56:25;7.20;;;6.17;;
15063;SDS011;7631;52.088;5.088;2024-01-30T01:58:51;7.13;;;6.23;;
15063;SDS011;7631;52.088;5.088;2024-01-30T02:01:19;7.00;;;5.93;;
15063;SDS011;7631;52.088;5.088;2024-01-30T02:03:45;6.47;;;5.87;;
15063;SDS011;7631;52.088;5.088;2024-01-30T02:06:11;6.97;;;6.23;;
15063;SDS011;7631;52.088;5.088;2024-01-30T02:08:37;7.33;;;6.07;;
15063;SDS011;7631;52.088;5.088;2024-01-30T02:11:02;7.17;;;6.23;;
15063;SDS011;7631;52.088;5.088;2024-01-30T02:13:27;6.70;;;6.00;;
15063;SDS011;7631;52.088;5.088;2024-01-30T02:15:53;7.13;;;6.20;;
15063;SDS011;7631;52.088;5.088;2024-01-30T02:18:19;7.73;;;6.20;;
15063;SDS011;7631;52.088;5.088;2024-01-30T02:20:44;7.37;;;6.27;;
15063;SDS011;7631;52.088;5.088;2024-01-30T02:23:10;6.87;;;6.17;;
15063;SDS011;7631;52.088;5.088;2024-01-30T02:25:38;7.07;;;6.00;;
15063;SDS011;7631;52.088;5.088;2024-01-30T02:28:03;7.87;;;5.80;;
15063;SDS011;7631;52.088;5.088;2024-01-30T02:30:29;6.47;;;5.80;;
15063;SDS011;7631;52.088;5.088;2024-01-30T02:32:54;6.97;;;5.90;;
15063;SDS011;7631;52.088;5.088;2024-01-30T02:35:19;6.63;;;5.53;;
15063;SDS011;7631;52.088;5.088;2024-01-30T02:37:44;6.50;;;5.80;;
15063;SDS011;7631;52.088;5.088;2024-01-30T02:40:09;7.23;;;5.83;;
15063;SDS011;7631;52.088;5.088;2024-01-30T02:42:35;6.70;;;5.80;;
15063;SDS011;7631;52.088;5.088;2024-01-30T02:45:00;6.70;;;6.00;;
15063;SDS011;7631;52.088;5.088;2024-01-30T02:47:25;6.67;;;5.90;;
15063;SDS011;7631;52.088;5.088;2024-01-30T02:49:50;6.60;;;5.70;;
15063;SDS011;7631;52.088;5.088;2024-01-30T02:52:15;7.63;;;6.10;;
15063;SDS011;7631;52.088;5.088;2024-01-30T02:54:41;6.33;;;5.73;;
15063;SDS011;7631;52.088;5.088;2024-01-30T02:57:06;6.27;;;5.60;;
15063;SDS011;7631;52.088;5.088;2024-01-30T02:59:31;7.17;;;5.87;;
15063;SDS011;7631;52.088;5.088;2024-01-30T03:01:58;7.13;;;5.90;;
15063;SDS011;7631;52.088;5.088;2024-01-30T03:04:23;6.60;;;5.70;;
15063;SDS011;7631;52.088;5.088;2024-01-30T03:06:48;6.57;;;5.87;;
15063;SDS011;7631;52.088;5.088;2024-01-30T03:09:15;7.20;;;5.63;;
15063;SDS011;7631;52.088;5.088;2024-01-30T03:11:40;5.63;;;5.03;;
15063;SDS011;7631;52.088;5.088;2024-01-30T03:14:05;6.07;;;5.47;;
15063;SDS011;7631;52.088;5.088;2024-01-30T03:16:31;6.93;;;5.73;;
15063;SDS011;7631;52.088;5.088;2024-01-30T03:18:57;6.83;;;5.30;;
15063;SDS011;7631;52.088;5.088;2024-01-30T03:21:22;6.63;;;5.93;;
15063;SDS011;7631;52.088;5.088;2024-01-30T03:23:47;6.53;;;5.60;;
15063;SDS011;7631;52.088;5.088;2024-01-30T03:26:12;6.37;;;5.70;;
15063;SDS011;7631;52.088;5.088;2024-01-30T03:28:38;6.20;;;5.60;;
15063;SDS011;7631;52.088;5.088;2024-01-30T03:31:03;6.43;;;5.70;;
15063;SDS011;7631;52.088;5.088;2024-01-30T03:33:28;5.83;;;5.23;;
15063;SDS011;7631;52.088;5.088;2024-01-30T03:35:53;5.83;;;5.23;;
15063;SDS011;7631;52.088;5.088;2024-01-30T03:38:18;5.40;;;4.90;;
15063;SDS011;7631;52.088;5.088;2024-01-30T03:40:44;5.87;;;5.23;;
15063;SDS011;7631;52.088;5.088;2024-01-30T03:43:09;5.63;;;5.00;;
15063;SDS011;7631;52.088;5.088;2024-01-30T03:45:34;5.90;;;5.30;;
15063;SDS011;7631;52.088;5.088;2024-01-30T03:47:59;5.67;;;5.17;;
15063;SDS011;7631;52.088;5.088;2024-01-30T03:50:24;6.27;;;5.40;;
15063;SDS011;7631;52.088;5.088;2024-01-30T03:52:50;6.07;;;5.43;;
15063;SDS011;7631;52.088;5.088;2024-01-30T03:55:15;6.20;;;5.27;;
15063;SDS011;7631;52.088;5.088;2024-01-30T03:57:40;6.33;;;5.37;;
15063;SDS011;7631;52.088;5.088;2024-01-30T04:00:05;6.00;;;5.40;;
15063;SDS011;7631;52.088;5.088;2024-01-30T04:02:31;7.07;;;5.30;;
15063;SDS011;7631;52.088;5.088;2024-01-30T04:04:56;7.03;;;5.70;;
15063;SDS011;7631;52.088;5.088;2024-01-30T04:07:21;6.50;;;5.17;;
15063;SDS011;7631;52.088;5.088;2024-01-30T04:09:46;6.30;;;5.10;;
15063;SDS011;7631;52.088;5.088;2024-01-30T04:12:11;6.17;;;5.57;;
15063;SDS011;7631;52.088;5.088;2024-01-30T04:14:38;6.83;;;5.40;;
15063;SDS011;7631;52.088;5.088;2024-01-30T04:17:03;6.10;;;5.10;;
15063;SDS011;7631;52.088;5.088;2024-01-30T04:19:28;5.83;;;5.20;;
15063;SDS011;7631;52.088;5.088;2024-01-30T04:21:53;5.43;;;4.93;;
15063;SDS011;7631;52.088;5.088;2024-01-30T04:24:18;6.37;;;5.37;;
15063;SDS011;7631;52.088;5.088;2024-01-30T04:26:43;6.67;;;5.50;;
15063;SDS011;7631;52.088;5.088;2024-01-30T04:29:09;6.20;;;5.57;;
15063;SDS011;7631;52.088;5.088;2024-01-30T04:31:35;5.33;;;4.83;;
15063;SDS011;7631;52.088;5.088;2024-01-30T04:34:01;5.83;;;5.23;;
15063;SDS011;7631;52.088;5.088;2024-01-30T04:36:26;6.17;;;5.10;;
15063;SDS011;7631;52.088;5.088;2024-01-30T04:38:51;7.27;;;5.27;;
15063;SDS011;7631;52.088;5.088;2024-01-30T04:41:16;6.20;;;5.60;;
15063;SDS011;7631;52.088;5.088;2024-01-30T04:43:42;5.60;;;5.00;;
15063;SDS011;7631;52.088;5.088;2024-01-30T04:46:07;6.00;;;5.27;;
15063;SDS011;7631;52.088;5.088;2024-01-30T04:48:32;5.53;;;5.03;;
15063;SDS011;7631;52.088;5.088;2024-01-30T04:50:58;6.17;;;5.20;;
15063;SDS011;7631;52.088;5.088;2024-01-30T04:53:23;5.60;;;5.10;;
15063;SDS011;7631;52.088;5.088;2024-01-30T04:55:48;7.47;;;5.87;;
15063;SDS011;7631;52.088;5.088;2024-01-30T04:58:13;6.93;;;5.57;;
15063;SDS011;7631;52.088;5.088;2024-01-30T05:00:39;5.87;;;5.23;;
15063;SDS011;7631;52.088;5.088;2024-01-30T05:03:04;8.60;;;5.87;;
15063;SDS011;7631;52.088;5.088;2024-01-30T05:05:29;5.60;;;4.97;;
15063;SDS011;7631;52.088;5.088;2024-01-30T05:07:54;5.30;;;4.80;;
15063;SDS011;7631;52.088;5.088;2024-01-30T05:10:19;5.50;;;5.00;;
15063;SDS011;7631;52.088;5.088;2024-01-30T05:12:45;6.33;;;5.23;;
15063;SDS011;7631;52.088;5.088;2024-01-30T05:15:10;6.03;;;5.40;;
15063;SDS011;7631;52.088;5.088;2024-01-30T05:17:35;5.63;;;5.07;;
15063;SDS011;7631;52.088;5.088;2024-01-30T05:20:00;6.93;;;5.27;;
15063;SDS011;7631;52.088;5.088;2024-01-30T05:22:25;5.93;;;5.13;;
15063;SDS011;7631;52.088;5.088;2024-01-30T05:24:51;6.20;;;5.20;;
15063;SDS011;7631;52.088;5.088;2024-01-30T05:27:16;5.70;;;4.83;;
15063;SDS011;7631;52.088;5.088;2024-01-30T05:29:41;5.63;;;4.97;;
15063;SDS011;7631;52.088;5.088;2024-01-30T05:32:06;6.00;;;5.40;;
15063;SDS011;7631;52.088;5.088;2024-01-30T05:34:31;6.07;;;5.27;;
15063;SDS011;7631;52.088;5.088;2024-01-30T05:36:57;6.20;;;5.23;;
15063;SDS011;7631;52.088;5.088;2024-01-30T05:39:22;5.80;;;5.20;;
15063;SDS011;7631;52.088;5.088;2024-01-30T05:41:47;5.77;;;5.17;;
15063;SDS011;7631;52.088;5.088;2024-01-30T05:44:12;6.00;;;5.40;;
15063;SDS011;7631;52.088;5.088;2024-01-30T05:46:37;6.07;;;5.30;;
15063;SDS011;7631;52.088;5.088;2024-01-30T05:49:03;5.43;;;4.93;;
15063;SDS011;7631;52.088;5.088;2024-01-30T05:51:28;6.30;;;5.07;;
15063;SDS011;7631;52.088;5.088;2024-01-30T05:53:53;6.60;;;5.20;;
15063;SDS011;7631;52.088;5.088;2024-01-30T05:56:18;6.07;;;5.47;;
15063;SDS011;7631;52.088;5.088;2024-01-30T05:58:43;5.60;;;5.00;;
15063;SDS011;7631;52.088;5.088;2024-01-30T06:01:09;5.93;;;5.33;;
15063;SDS011;7631;52.088;5.088;2024-01-30T06:03:34;5.87;;;4.83;;
15063;SDS011;7631;52.088;5.088;2024-01-30T06:05:59;5.70;;;5.20;;
15063;SDS011;7631;52.088;5.088;2024-01-30T06:08:25;6.40;;;5.20;;
15063;SDS011;7631;52.088;5.088;2024-01-30T06:10:50;5.30;;;4.80;;
15063;SDS011;7631;52.088;5.088;2024-01-30T06:13:15;5.77;;;5.00;;
15063;SDS011;7631;52.088;5.088;2024-01-30T06:15:40;6.17;;;5.57;;
15063;SDS011;7631;52.088;5.088;2024-01-30T06:18:05;5.83;;;5.23;;
15063;SDS011;7631;52.088;5.088;2024-01-30T06:20:30;5.60;;;5.10;;
15063;SDS011;7631;52.088;5.088;2024-01-30T06:22:56;6.60;;;5.30;;
15063;SDS011;7631;52.088;5.088;2024-01-30T06:25:21;5.87;;;5.13;;
15063;SDS011;7631;52.088;5.088;2024-01-30T06:27:47;6.17;;;5.53;;
15063;SDS011;7631;52.088;5.088;2024-01-30T06:30:12;6.17;;;5.30;;
15063;SDS011;7631;52.088;5.088;2024-01-30T06:32:37;5.83;;;5.13;;
15063;SDS011;7631;52.088;5.088;2024-01-30T06:35:03;5.20;;;4.70;;
15063;SDS011;7631;52.088;5.088;2024-01-30T06:37:29;5.20;;;4.70;;
15063;SDS011;7631;52.088;5.088;2024-01-30T06:39:54;5.97;;;4.43;;
15063;SDS011;7631;52.088;5.088;2024-01-30T06:42:19;7.07;;;5.57;;
15063;SDS011;7631;52.088;5.088;2024-01-30T06:44:44;5.80;;;5.20;;
15063;SDS011;7631;52.088;5.088;2024-01-30T06:47:10;7.10;;;5.60;;
15063;SDS011;7631;52.088;5.088;2024-01-30T06:49:35;5.47;;;4.87;;
15063;SDS011;7631;52.088;5.088;2024-01-30T06:52:04;5.13;;;4.60;;
15063;SDS011;7631;52.088;5.088;2024-01-30T06:54:29;5.73;;;5.13;;
15063;SDS011;7631;52.088;5.088;2024-01-30T06:56:55;6.50;;;5.33;;
15063;SDS011;7631;52.088;5.088;2024-01-30T06:59:20;5.87;;;4.87;;
15063;SDS011;7631;52.088;5.088;2024-01-30T07:01:45;6.60;;;5.20;;
15063;SDS011;7631;52.088;5.088;2024-01-30T07:04:10;6.53;;;5.00;;
15063;SDS011;7631;52.088;5.088;2024-01-30T07:06:35;5.50;;;4.70;;
15063;SDS011;7631;52.088;5.088;2024-01-30T07:09:00;5.50;;;4.80;;
15063;SDS011;7631;52.088;5.088;2024-01-30T07:11:26;8.17;;;6.33;;
15063;SDS011;7631;52.088;5.088;2024-01-30T07:13:51;6.43;;;5.27;;
15063;SDS011;7631;52.088;5.088;2024-01-30T07:16:16;7.13;;;5.83;;
15063;SDS011;7631;52.088;5.088;2024-01-30T07:18:42;6.87;;;5.50;;
15063;SDS011;7631;52.088;5.088;2024-01-30T07:21:08;6.10;;;5.00;;
15063;SDS011;7631;52.088;5.088;2024-01-30T07:23:33;6.50;;;5.70;;
15063;SDS011;7631;52.088;5.088;2024-01-30T07:25:59;6.93;;;5.57;;
15063;SDS011;7631;52.088;5.088;2024-01-30T07:28:25;6.83;;;6.03;;
15063;SDS011;7631;52.088;5.088;2024-01-30T07:30:50;6.17;;;5.53;;
15063;SDS011;7631;52.088;5.088;2024-01-30T07:33:15;5.70;;;5.03;;
15063;SDS011;7631;52.088;5.088;2024-01-30T07:35:40;5.93;;;4.90;;
15063;SDS011;7631;52.088;5.088;2024-01-30T07:38:05;6.17;;;5.40;;
15063;SDS011;7631;52.088;5.088;2024-01-30T07:40:31;5.90;;;5.30;;
15063;SDS011;7631;52.088;5.088;2024-01-30T07:42:58;7.73;;;5.97;;
15063;SDS011;7631;52.088;5.088;2024-01-30T07:45:23;7.40;;;5.50;;
15063;SDS011;7631;52.088;5.088;2024-01-30T07:47:49;6.40;;;5.37;;
15063;SDS011;7631;52.088;5.088;2024-01-30T07:50:15;6.17;;;5.57;;
15063;SDS011;7631;52.088;5.088;2024-01-30T07:52:40;6.00;;;5.00;;
15063;SDS011;7631;52.088;5.088;2024-01-30T07:55:05;6.07;;;5.13;;
15063;SDS011;7631;52.088;5.088;2024-01-30T07:57:32;5.70;;;5.07;;
15063;SDS011;7631;52.088;5.088;2024-01-30T07:59:58;6.57;;;5.70;;
15063;SDS011;7631;52.088;5.088;2024-01-30T08:02:23;5.90;;;5.23;;
15063;SDS011;7631;52.088;5.088;2024-01-30T08:04:48;5.50;;;4.87;;
15063;SDS011;7631;52.088;5.088;2024-01-30T08:07:14;7.17;;;5.70;;
15063;SDS011;7631;52.088;5.088;2024-01-30T08:09:39;5.93;;;5.20;;
15063;SDS011;7631;52.088;5.088;2024-01-30T08:12:04;6.67;;;5.30;;
15063;SDS011;7631;52.088;5.088;2024-01-30T08:14:30;5.73;;;5.00;;
15063;SDS011;7631;52.088;5.088;2024-01-30T08:16:55;7.63;;;5.53;;
15063;SDS011;7631;52.088;5.088;2024-01-30T08:19:20;7.47;;;5.63;;
15063;SDS011;7631;52.088;5.088;2024-01-30T08:21:45;7.73;;;5.93;;
15063;SDS011;7631;52.088;5.088;2024-01-30T08:24:10;7.80;;;5.43;;
15063;SDS011;7631;52.088;5.088;2024-01-30T08:26:36;5.97;;;5.37;;
15063;SDS011;7631;52.088;5.088;2024-01-30T08:29:02;6.43;;;5.83;;
15063;SDS011;7631;52.088;5.088;2024-01-30T08:31:27;7.57;;;5.07;;
15063;SDS011;7631;52.088;5.088;2024-01-30T08:33:52;6.60;;;5.10;;
15063;SDS011;7631;52.088;5.088;2024-01-30T08:36:17;6.30;;;5.63;;
15063;SDS011;7631;52.088;5.088;2024-01-30T08:38:43;7.20;;;5.23;;
15063;SDS011;7631;52.088;5.088;2024-01-30T08:41:08;5.83;;;5.20;;
15063;SDS011;7631;52.088;5.088;2024-01-30T08:43:33;5.97;;;4.77;;
15063;SDS011;7631;52.088;5.088;2024-01-30T08:45:59;5.90;;;5.30;;
15063;SDS011;7631;52.088;5.088;2024-01-30T08:48:24;7.60;;;5.27;;
15063;SDS011;7631;52.088;5.088;2024-01-30T08:50:50;7.23;;;5.50;;
15063;SDS011;7631;52.088;5.088;2024-01-30T08:53:15;5.63;;;4.47;;
15063;SDS011;7631;52.088;5.088;2024-01-30T08:55:40;5.83;;;5.23;;
15063;SDS011;7631;52.088;5.088;2024-01-30T08:58:05;7.10;;;5.47;;
15063;SDS011;7631;52.088;5.088;2024-01-30T09:00:30;6.70;;;5.37;;
15063;SDS011;7631;52.088;5.088;2024-01-30T09:02:56;5.83;;;5.23;;
15063;SDS011;7631;52.088;5.088;2024-01-30T09:05:21;6.30;;;5.37;;
15063;SDS011;7631;52.088;5.088;2024-01-30T09:07:46;5.97;;;5.10;;
15063;SDS011;7631;52.088;5.088;2024-01-30T09:10:11;6.77;;;4.80;;
15063;SDS011;7631;52.088;5.088;2024-01-30T09:12:36;5.77;;;4.83;;
15063;SDS011;7631;52.088;5.088;2024-01-30T09:15:02;5.23;;;4.63;;
15063;SDS011;7631;52.088;5.088;2024-01-30T09:17:27;6.10;;;4.97;;
15063;SDS011;7631;52.088;5.088;2024-01-30T09:19:52;6.27;;;4.90;;
15063;SDS011;7631;52.088;5.088;2024-01-30T09:22:17;6.83;;;5.63;;
15063;SDS011;7631;52.088;5.088;2024-01-30T09:24:42;5.77;;;5.17;;
15063;SDS011;7631;52.088;5.088;2024-01-30T09:27:08;7.77;;;5.23;;
15063;SDS011;7631;52.088;5.088;2024-01-30T09:29:33;6.13;;;4.93;;
15063;SDS011;7631;52.088;5.088;2024-01-30T09:32:01;6.70;;;4.97;;
15063;SDS011;7631;52.088;5.088;2024-01-30T09:34:26;7.30;;;4.93;;
15063;SDS011;7631;52.088;5.088;2024-01-30T09:36:51;5.57;;;5.03;;
15063;SDS011;7631;52.088;5.088;2024-01-30T09:39:16;6.33;;;4.87;;
15063;SDS011;7631;52.088;5.088;2024-01-30T09:41:48;6.43;;;5.40;;
15063;SDS011;7631;52.088;5.088;2024-01-30T09:44:15;6.90;;;4.70;;
15063;SDS011;7631;52.088;5.088;2024-01-30T09:46:40;5.87;;;5.27;;
15063;SDS011;7631;52.088;5.088;2024-01-30T09:49:07;7.57;;;5.33;;
15063;SDS011;7631;52.088;5.088;2024-01-30T09:51:33;5.03;;;4.20;;
15063;SDS011;7631;52.088;5.088;2024-01-30T09:53:59;5.73;;;4.77;;
15063;SDS011;7631;52.088;5.088;2024-01-30T09:56:24;5.17;;;4.67;;
15063;SDS011;7631;52.088;5.088;2024-01-30T09:58:49;8.00;;;5.83;;
15063;SDS011;7631;52.088;5.088;2024-01-30T10:01:15;5.13;;;4.63;;
15063;SDS011;7631;52.088;5.088;2024-01-30T10:03:43;7.10;;;5.63;;
15063;SDS011;7631;52.088;5.088;2024-01-30T10:06:08;6.07;;;4.50;;
15063;SDS011;7631;52.088;5.088;2024-01-30T10:08:34;6.83;;;5.20;;
15063;SDS011;7631;52.088;5.088;2024-01-30T10:10:59;6.47;;;5.10;;
15063;SDS011;7631;52.088;5.088;2024-01-30T10:13:25;5.53;;;4.90;;
15063;SDS011;7631;52.088;5.088;2024-01-30T10:15:50;7.37;;;5.20;;
15063;SDS011;7631;52.088;5.088;2024-01-30T10:18:16;7.80;;;5.30;;
15063;SDS011;7631;52.088;5.088;2024-01-30T10:20:41;6.70;;;5.60;;
15063;SDS011;7631;52.088;5.088;2024-01-30T10:23:07;6.17;;;5.37;;
15063;SDS011;7631;52.088;5.088;2024-01-30T10:25:32;7.57;;;5.30;;
15063;SDS011;7631;52.088;5.088;2024-01-30T10:27:58;6.17;;;5.37;;
15063;SDS011;7631;52.088;5.088;2024-01-30T10:30:24;7.00;;;5.37;;
15063;SDS011;7631;52.088;5.088;2024-01-30T10:32:49;6.83;;;5.37;;
15063;SDS011;7631;52.088;5.088;2024-01-30T10:35:15;7.00;;;5.50;;
15063;SDS011;7631;52.088;5.088;2024-01-30T10:37:41;6.27;;;4.80;;
15063;SDS011;7631;52.088;5.088;2024-01-30T10:40:08;5.90;;;5.20;;
15063;SDS011;7631;52.088;5.088;2024-01-30T10:42:34;6.37;;;4.90;;
15063;SDS011;7631;52.088;5.088;2024-01-30T10:47:34;7.53;;;5.20;;
15063;SDS011;7631;52.088;5.088;2024-01-30T10:49:59;6.33;;;5.03;;
15063;SDS011;7631;52.088;5.088;2024-01-30T10:52:25;5.67;;;5.00;;
15063;SDS011;7631;52.088;5.088;2024-01-30T10:54:51;7.57;;;5.27;;
15063;SDS011;7631;52.088;5.088;2024-01-30T10:57:17;6.17;;;4.90;;
15063;SDS011;7631;52.088;5.088;2024-01-30T10:59:42;5.73;;;5.20;;
15063;SDS011;7631;52.088;5.088;2024-01-30T11:02:08;6.60;;;5.23;;
15063;SDS011;7631;52.088;5.088;2024-01-30T11:04:37;6.00;;;5.07;;
15063;SDS011;7631;52.088;5.088;2024-01-30T11:07:13;5.77;;;4.83;;
15063;SDS011;7631;52.088;5.088;2024-01-30T11:09:39;7.30;;;5.20;;
15063;SDS011;7631;52.088;5.088;2024-01-30T11:12:04;5.63;;;4.57;;
15063;SDS011;7631;52.088;5.088;2024-01-30T11:14:30;5.50;;;5.00;;
15063;SDS011;7631;52.088;5.088;2024-01-30T11:16:58;5.93;;;5.07;;
15063;SDS011;7631;52.088;5.088;2024-01-30T11:19:24;6.40;;;4.30;;
15063;SDS011;7631;52.088;5.088;2024-01-30T11:21:53;7.17;;;4.83;;
15063;SDS011;7631;52.088;5.088;2024-01-30T11:24:19;5.40;;;4.50;;
15063;SDS011;7631;52.088;5.088;2024-01-30T11:26:44;7.13;;;4.73;;
15063;SDS011;7631;52.088;5.088;2024-01-30T11:29:10;5.57;;;4.30;;
15063;SDS011;7631;52.088;5.088;2024-01-30T11:31:38;6.13;;;4.70;;
15063;SDS011;7631;52.088;5.088;2024-01-30T11:34:03;7.10;;;3.73;;
15063;SDS011;7631;52.088;5.088;2024-01-30T11:36:30;5.10;;;4.30;;
15063;SDS011;7631;52.088;5.088;2024-01-30T11:38:57;5.27;;;3.80;;
15063;SDS011;7631;52.088;5.088;2024-01-30T11:41:22;5.30;;;4.00;;
15063;SDS011;7631;52.088;5.088;2024-01-30T11:43:52;4.93;;;3.83;;
15063;SDS011;7631;52.088;5.088;2024-01-30T11:46:17;4.17;;;3.70;;
15063;SDS011;7631;52.088;5.088;2024-01-30T11:48:42;6.60;;;4.10;;
15063;SDS011;7631;52.088;5.088;2024-01-30T11:51:07;6.60;;;3.83;;
15063;SDS011;7631;52.088;5.088;2024-01-30T11:53:33;5.13;;;3.90;;
15063;SDS011;7631;52.088;5.088;2024-01-30T11:55:58;4.57;;;3.40;;
15063;SDS011;7631;52.088;5.088;2024-01-30T11:58:24;6.60;;;3.80;;
15063;SDS011;7631;52.088;5.088;2024-01-30T12:00:53;4.60;;;3.50;;
15063;SDS011;7631;52.088;5.088;2024-01-30T12:03:19;3.77;;;3.40;;
15063;SDS011;7631;52.088;5.088;2024-01-30T12:05:44;4.83;;;3.53;;
15063;SDS011;7631;52.088;5.088;2024-01-30T12:08:14;4.23;;;3.17;;
15063;SDS011;7631;52.088;5.088;2024-01-30T12:10:39;4.27;;;3.00;;
15063;SDS011;7631;52.088;5.088;2024-01-30T12:13:04;4.50;;;3.37;;
15063;SDS011;7631;52.088;5.088;2024-01-30T12:15:30;4.07;;;3.00;;
15063;SDS011;7631;52.088;5.088;2024-01-30T12:18:03;3.80;;;3.13;;
15063;SDS011;7631;52.088;5.088;2024-01-30T12:20:28;3.53;;;2.60;;
15063;SDS011;7631;52.088;5.088;2024-01-30T12:22:54;5.50;;;3.40;;
15063;SDS011;7631;52.088;5.088;2024-01-30T12:25:20;3.27;;;2.87;;
15063;SDS011;7631;52.088;5.088;2024-01-30T12:27:46;4.07;;;2.60;;
15063;SDS011;7631;52.088;5.088;2024-01-30T12:30:12;3.90;;;2.47;;
15063;SDS011;7631;52.088;5.088;2024-01-30T12:32:42;3.90;;;2.90;;
15063;SDS011;7631;52.088;5.088;2024-01-30T12:35:11;3.57;;;2.50;;
15063;SDS011;7631;52.088;5.088;2024-01-30T12:37:38;3.57;;;3.03;;
15063;SDS011;7631;52.088;5.088;2024-01-30T12:40:03;3.53;;;2.37;;
15063;SDS011;7631;52.088;5.088;2024-01-30T12:42:29;4.50;;;2.47;;
15063;SDS011;7631;52.088;5.088;2024-01-30T12:44:54;3.60;;;2.17;;
15063;SDS011;7631;52.088;5.088;2024-01-30T12:47:22;3.90;;;2.70;;
15063;SDS011;7631;52.088;5.088;2024-01-30T12:49:48;3.43;;;2.20;;
15063;SDS011;7631;52.088;5.088;2024-01-30T12:52:16;3.17;;;2.47;;
15063;SDS011;7631;52.088;5.088;2024-01-30T12:54:41;3.17;;;2.00;;
15063;SDS011;7631;52.088;5.088;2024-01-30T12:57:07;3.33;;;2.30;;
15063;SDS011;7631;52.088;5.088;2024-01-30T12:59:32;3.67;;;2.13;;
15063;SDS011;7631;52.088;5.088;2024-01-30T13:01:59;4.63;;;2.30;;
15063;SDS011;7631;52.088;5.088;2024-01-30T13:04:25;3.30;;;1.63;;
15063;SDS011;7631;52.088;5.088;2024-01-30T13:06:50;1.93;;;1.67;;
15063;SDS011;7631;52.088;5.088;2024-01-30T13:09:15;3.63;;;1.63;;
15063;SDS011;7631;52.088;5.088;2024-01-30T13:11:40;2.93;;;1.73;;
15063;SDS011;7631;52.088;5.088;2024-01-30T13:14:06;3.93;;;1.80;;
15063;SDS011;7631;52.088;5.088;2024-01-30T13:16:31;2.73;;;1.80;;
15063;SDS011;7631;52.088;5.088;2024-01-30T13:18:57;3.87;;;1.90;;
15063;SDS011;7631;52.088;5.088;2024-01-30T13:21:22;3.00;;;1.50;;
15063;SDS011;7631;52.088;5.088;2024-01-30T13:23:47;2.43;;;1.60;;
15063;SDS011;7631;52.088;5.088;2024-01-30T13:26:12;2.00;;;1.60;;
15063;SDS011;7631;52.088;5.088;2024-01-30T13:28:38;3.53;;;1.60;;
15063;SDS011;7631;52.088;5.088;2024-01-30T13:31:03;1.50;;;1.20;;
15063;SDS011;7631;52.088;5.088;2024-01-30T13:33:30;2.80;;;1.70;;
15063;SDS011;7631;52.088;5.088;2024-01-30T13:35:55;3.07;;;1.80;;
15063;SDS011;7631;52.088;5.088;2024-01-30T13:38:20;3.43;;;1.50;;
15063;SDS011;7631;52.088;5.088;2024-01-30T13:40:45;2.73;;;1.23;;
15063;SDS011;7631;52.088;5.088;2024-01-30T13:43:11;1.77;;;1.07;;
15063;SDS011;7631;52.088;5.088;2024-01-30T13:45:37;2.27;;;1.50;;
15063;SDS011;7631;52.088;5.088;2024-01-30T13:48:02;1.23;;;0.93;;
15063;SDS011;7631;52.088;5.088;2024-01-30T13:50:28;1.90;;;1.50;;
15063;SDS011;7631;52.088;5.088;2024-01-30T13:52:53;3.40;;;1.37;;
15063;SDS011;7631;52.088;5.088;2024-01-30T13:55:18;3.73;;;1.50;;
15063;SDS011;7631;52.088;5.088;2024-01-30T13:57:43;1.90;;;1.30;;
15063;SDS011;7631;52.088;5.088;2024-01-30T14:00:09;2.33;;;1.17;;
15063;SDS011;7631;52.088;5.088;2024-01-30T14:02:34;3.93;;;1.50;;
15063;SDS011;7631;52.088;5.088;2024-01-30T14:04:59;2.93;;;1.33;;
15063;SDS011;7631;52.088;5.088;2024-01-30T14:07:25;2.60;;;1.10;;
15063;SDS011;7631;52.088;5.088;2024-01-30T14:09:50;2.53;;;1.40;;
15063;SDS011;7631;52.088;5.088;2024-01-30T14:12:15;1.77;;;1.10;;
15063;SDS011;7631;52.088;5.088;2024-01-30T14:14:40;3.03;;;1.30;;
15063;SDS011;7631;52.088;5.088;2024-01-30T14:17:06;3.20;;;1.20;;
15063;SDS011;7631;52.088;5.088;2024-01-30T14:19:32;1.73;;;1.07;;
15063;SDS011;7631;52.088;5.088;2024-01-30T14:21:57;1.73;;;1.00;;
15063;SDS011;7631;52.088;5.088;2024-01-30T14:24:22;3.03;;;1.20;;
15063;SDS011;7631;52.088;5.088;2024-01-30T14:26:47;1.20;;;1.10;;
15063;SDS011;7631;52.088;5.088;2024-01-30T14:29:13;2.07;;;1.10;;
15063;SDS011;7631;52.088;5.088;2024-01-30T14:31:38;2.10;;;1.00;;
15063;SDS011;7631;52.088;5.088;2024-01-30T14:34:03;1.93;;;1.13;;
15063;SDS011;7631;52.088;5.088;2024-01-30T14:36:28;2.73;;;1.10;;
15063;SDS011;7631;52.088;5.088;2024-01-30T14:38:54;1.20;;;1.10;;
15063;SDS011;7631;52.088;5.088;2024-01-30T14:41:19;2.27;;;1.00;;
15063;SDS011;7631;52.088;5.088;2024-01-30T14:43:45;3.90;;;1.30;;
15063;SDS011;7631;52.088;5.088;2024-01-30T14:46:10;1.47;;;1.30;;
15063;SDS011;7631;52.088;5.088;2024-01-30T14:48:35;2.07;;;1.03;;
15063;SDS011;7631;52.088;5.088;2024-01-30T14:51:00;2.03;;;1.03;;
15063;SDS011;7631;52.088;5.088;2024-01-30T14:53:25;2.53;;;1.17;;